createdAt,value
2018-09-05T00:00:46.767Z,92.896
2018-09-05T00:01:51.359Z,93.1497
2018-09-05T00:02:55.949Z,91.1336
2018-09-05T00:04:01.067Z,94.0718
2018-09-05T00:05:05.932Z,93.6517
2018-09-05T00:06:11.392Z,93.8208
2018-09-05T00:07:16.606Z,93.4007
2018-09-05T00:08:21.515Z,94.3255
2018-09-05T00:09:42.006Z,93.6517
2018-09-05T00:10:46.870Z,93.1497
2018-09-05T00:11:51.458Z,94.0718
2018-09-05T00:12:56.754Z,93.8208
2018-09-05T00:14:02.268Z,93.6517
2018-09-05T00:15:07.455Z,94.0718
2018-09-05T00:16:12.280Z,94.0718
2018-09-05T00:17:17.497Z,94.5765
2018-09-05T00:18:22.731Z,94.5765
2018-09-05T00:19:28.360Z,94.8276
2018-09-05T00:20:33.514Z,94.3255
2018-09-05T00:21:38.822Z,95.0812
2018-09-05T00:22:43.975Z,94.3255
2018-09-05T00:23:49.432Z,95.0812
2018-09-05T00:24:54.621Z,95.0812
2018-09-05T00:25:59.776Z,95.0812
2018-09-05T00:27:05.003Z,94.5765
2018-09-05T00:28:10.535Z,96.0879
2018-09-05T00:29:15.736Z,94.3255
2018-09-05T00:30:20.905Z,94.8276
2018-09-05T00:31:26.598Z,95.0812
2018-09-05T00:32:32.033Z,93.4007
2018-09-05T00:33:37.815Z,94.8276
2018-09-05T00:34:42.476Z,95.0812
2018-09-05T00:35:47.342Z,95.0812
2018-09-05T00:36:53.221Z,95.3322
2018-09-05T00:37:58.389Z,94.5765
2018-09-05T00:39:03.821Z,95.5859
2018-09-05T00:40:09.904Z,94.5765
2018-09-05T00:41:14.778Z,94.5765
2018-09-05T00:42:20.204Z,95.0812
2018-09-05T00:43:25.992Z,95.3322
2018-09-05T00:44:31.413Z,95.8369
2018-09-05T00:45:36.900Z,95.3322
2018-09-05T00:46:42.056Z,95.5859
2018-09-05T00:47:47.538Z,96.0879
2018-09-05T00:48:53.157Z,94.5765
2018-09-05T00:49:58.331Z,95.5859
2018-09-05T00:51:03.203Z,94.8276
2018-09-05T00:52:08.609Z,95.5859
2018-09-05T00:53:14.043Z,94.5765
2018-09-05T00:54:18.909Z,94.5765
2018-09-05T00:55:24.647Z,95.0812
2018-09-05T00:56:29.788Z,94.5765
2018-09-05T00:57:35.576Z,94.5765
2018-09-05T00:58:40.740Z,95.0812
2018-09-05T00:59:46.219Z,96.3416
2018-09-05T01:00:51.903Z,95.3322
2018-09-05T01:01:57.101Z,95.8369
2018-09-05T01:03:02.359Z,95.0812
2018-09-05T01:04:07.902Z,95.3322
2018-09-05T01:05:13.330Z,95.8369
2018-09-05T01:06:17.919Z,95.8369
2018-09-05T01:07:23.319Z,95.8369
2018-09-05T01:08:28.782Z,96.0879
2018-09-05T01:09:34.289Z,96.3416
2018-09-05T01:10:39.443Z,95.3322
2018-09-05T01:11:44.924Z,95.3322
2018-09-05T01:12:50.449Z,95.5859
2018-09-05T01:13:55.878Z,95.3322
2018-09-05T01:15:01.324Z,94.8276
2018-09-05T01:16:06.967Z,94.5765
2018-09-05T01:17:11.845Z,94.0718
2018-09-05T01:18:17.280Z,95.3322
2018-09-05T01:19:23.116Z,94.5765
2018-09-05T01:20:28.257Z,94.8276
2018-09-05T01:21:34.296Z,95.5859
2018-09-05T01:22:39.523Z,94.8276
2018-09-05T01:23:44.396Z,94.8276
2018-09-05T01:24:50.013Z,95.3322
2018-09-05T01:25:54.695Z,94.5765
2018-09-05T01:26:59.571Z,95.0812
2018-09-05T01:28:05.413Z,94.8276
2018-09-05T01:29:10.913Z,95.0812
2018-09-05T01:30:16.065Z,95.3322
2018-09-05T01:31:21.622Z,95.8369
2018-09-05T01:32:26.783Z,95.8369
2018-09-05T01:33:32.288Z,95.5859
2018-09-05T01:34:37.750Z,95.5859
2018-09-05T01:35:42.626Z,95.5859
2018-09-05T01:36:48.017Z,95.5859
2018-09-05T01:37:53.492Z,96.3416
2018-09-05T01:38:58.685Z,95.0812
2018-09-05T01:40:03.669Z,96.0879
2018-09-05T01:41:08.874Z,96.3416
2018-09-05T01:42:14.461Z,96.0879
2018-09-05T01:43:20.160Z,96.0879
2018-09-05T01:44:25.312Z,95.8369
2018-09-05T01:45:30.940Z,94.8276
2018-09-05T01:46:36.108Z,95.3322
2018-09-05T01:47:41.577Z,94.3255
2018-09-05T01:48:47.525Z,94.8276
2018-09-05T01:49:52.676Z,95.8369
2018-09-05T01:50:57.853Z,95.3322
2018-09-05T01:52:02.808Z,95.5859
2018-09-05T01:53:07.399Z,95.0812
2018-09-05T01:54:12.890Z,95.0812
2018-09-05T01:55:17.439Z,95.0812
2018-09-05T01:56:21.483Z,95.3322
2018-09-05T01:57:41.969Z,96.3416
2018-09-05T01:58:46.349Z,95.3322
2018-09-05T01:59:51.782Z,95.8369
2018-09-05T02:00:56.892Z,95.5859
2018-09-05T02:02:02.056Z,96.0879
2018-09-05T02:03:06.925Z,94.8276
2018-09-05T02:04:12.636Z,95.8369
2018-09-05T02:05:17.788Z,96.0879
2018-09-05T02:06:22.934Z,96.0879
2018-09-05T02:07:29.247Z,96.3416
2018-09-05T02:08:34.810Z,97.0127
2018-09-05T02:09:40.129Z,96.7617
2018-09-05T02:10:45.584Z,95.8369
2018-09-05T02:11:51.026Z,96.7617
2018-09-05T02:12:56.526Z,96.0879
2018-09-05T02:14:01.689Z,97.0127
2018-09-05T02:15:06.883Z,95.5859
2018-09-05T02:16:12.337Z,95.8369
2018-09-05T02:17:17.210Z,95.5859
2018-09-05T02:18:22.442Z,96.0879
2018-09-05T02:19:27.883Z,96.0879
2018-09-05T02:20:33.047Z,96.0879
2018-09-05T02:21:38.917Z,95.5859
2018-09-05T02:22:44.068Z,96.0879
2018-09-05T02:23:49.506Z,95.0812
2018-09-05T02:24:55.185Z,95.0812
2018-09-05T02:26:00.341Z,95.8369
2018-09-05T02:27:05.509Z,96.0879
2018-09-05T02:28:11.342Z,95.8369
2018-09-05T02:29:16.858Z,95.8369
2018-09-05T02:30:22.382Z,95.5859
2018-09-05T02:31:28.513Z,96.0879
2018-09-05T02:32:34.063Z,95.3322
2018-09-05T02:33:39.525Z,95.5859
2018-09-05T02:34:44.375Z,96.0879
2018-09-05T02:35:49.543Z,96.0879
2018-09-05T02:36:54.701Z,95.5859
2018-09-05T02:37:59.856Z,96.3416
2018-09-05T02:39:05.328Z,95.8369
2018-09-05T02:40:11.070Z,96.5081
2018-09-05T02:41:16.548Z,95.8369
2018-09-05T02:42:22.018Z,95.5859
2018-09-05T02:43:27.875Z,95.3322
2018-09-05T02:44:32.771Z,96.5081
2018-09-05T02:45:38.606Z,96.7617
2018-09-05T02:46:44.067Z,95.3322
2018-09-05T02:47:49.516Z,96.0879
2018-09-05T02:48:55.203Z,96.7617
2018-09-05T02:50:00.091Z,96.0879
2018-09-05T02:51:04.121Z,96.3416
2018-09-05T02:52:09.847Z,96.0879
2018-09-05T02:53:15.081Z,97.0127
2018-09-05T02:54:20.524Z,96.3416
2018-09-05T02:55:26.312Z,96.5081
2018-09-05T02:56:31.792Z,97.0127
2018-09-05T02:57:37.481Z,97.0127
2018-09-05T02:58:42.917Z,95.8369
2018-09-05T02:59:47.845Z,95.5859
2018-09-05T03:00:53.526Z,95.5859
2018-09-05T03:01:58.480Z,96.0879
2018-09-05T03:03:03.390Z,94.8276
2018-09-05T03:04:08.787Z,96.3416
2018-09-05T03:05:13.666Z,95.8369
2018-09-05T03:06:19.214Z,95.8369
2018-09-05T03:07:24.324Z,95.0812
2018-09-05T03:08:29.762Z,95.0812
2018-09-05T03:09:35.182Z,95.5859
2018-09-05T03:10:40.047Z,95.8369
2018-09-05T03:11:45.203Z,95.5859
2018-09-05T03:12:50.427Z,95.3322
2018-09-05T03:13:55.857Z,95.5859
2018-09-05T03:15:01.311Z,95.3322
2018-09-05T03:16:06.462Z,95.5859
2018-09-05T03:17:11.615Z,95.3322
2018-09-05T03:18:16.782Z,95.3322
2018-09-05T03:19:22.352Z,95.3322
2018-09-05T03:20:27.543Z,95.0812
2018-09-05T03:21:32.263Z,95.8369
2018-09-05T03:22:37.423Z,95.5859
2018-09-05T03:23:42.572Z,94.3255
2018-09-05T03:24:47.777Z,96.3416
2018-09-05T03:25:52.927Z,95.5859
2018-09-05T03:26:58.361Z,95.0812
2018-09-05T03:28:04.222Z,95.8369
2018-09-05T03:29:09.126Z,95.5859
2018-09-05T03:30:14.284Z,96.0879
2018-09-05T03:31:19.700Z,95.8369
2018-09-05T03:32:24.493Z,94.8276
2018-09-05T03:33:30.240Z,96.0879
2018-09-05T03:34:35.760Z,95.3322
2018-09-05T03:35:40.642Z,95.5859
2018-09-05T03:36:45.948Z,95.3322
2018-09-05T03:37:51.383Z,95.3322
2018-09-05T03:38:56.601Z,95.0812
2018-09-05T03:40:02.332Z,95.3322
2018-09-05T03:41:07.772Z,95.5859
2018-09-05T03:42:12.925Z,94.8276
2018-09-05T03:43:18.091Z,95.5859
2018-09-05T03:44:23.523Z,95.3322
2018-09-05T03:45:28.916Z,95.5859
2018-09-05T03:46:34.351Z,94.8276
2018-09-05T03:47:39.803Z,95.5859
2018-09-05T03:48:45.192Z,95.8369
2018-09-05T03:49:50.980Z,95.8369
2018-09-05T03:50:56.604Z,95.3322
2018-09-05T03:52:02.007Z,95.0812
2018-09-05T03:53:06.590Z,95.5859
2018-09-05T03:54:11.518Z,95.8369
2018-09-05T03:55:17.009Z,94.5765
2018-09-05T03:56:22.163Z,94.8276
2018-09-05T03:57:27.646Z,94.5765
2018-09-05T03:58:32.511Z,95.0812
2018-09-05T03:59:37.964Z,94.8276
2018-09-05T04:00:43.715Z,94.3255
2018-09-05T04:01:48.858Z,94.8276
2018-09-05T04:02:54.004Z,94.5765
2018-09-05T04:03:59.144Z,93.9054
2018-09-05T04:05:04.279Z,94.3255
2018-09-05T04:06:09.020Z,94.1564
2018-09-05T04:07:14.844Z,93.9054
2018-09-05T04:08:20.016Z,94.8276
2018-09-05T04:09:25.492Z,95.3322
2018-09-05T04:10:30.319Z,94.1564
2018-09-05T04:11:35.512Z,94.4074
2018-09-05T04:12:40.916Z,94.1564
2018-09-05T04:13:45.789Z,94.1564
2018-09-05T04:14:50.982Z,94.6611
2018-09-05T04:15:56.841Z,94.1564
2018-09-05T04:17:02.269Z,94.8276
2018-09-05T04:18:07.184Z,94.4074
2018-09-05T04:19:12.756Z,94.1564
2018-09-05T04:20:18.183Z,94.6611
2018-09-05T04:21:23.071Z,95.0812
2018-09-05T04:22:43.393Z,94.4074
2018-09-05T04:23:48.851Z,94.6611
2018-09-05T04:24:54.401Z,94.9121
2018-09-05T04:25:59.545Z,94.6611
2018-09-05T04:27:04.694Z,94.1564
2018-09-05T04:28:09.939Z,94.9121
2018-09-05T04:29:14.820Z,94.4074
2018-09-05T04:30:19.775Z,94.1564
2018-09-05T04:31:24.959Z,94.1564
2018-09-05T04:32:30.388Z,94.4074
2018-09-05T04:33:36.010Z,94.9121
2018-09-05T04:34:40.619Z,94.1564
2018-09-05T04:35:45.757Z,93.9054
2018-09-05T04:36:51.064Z,94.4074
2018-09-05T04:37:55.630Z,94.6611
2018-09-05T04:39:00.819Z,93.6517
2018-09-05T04:40:05.654Z,94.1564
2018-09-05T04:41:11.161Z,95.1658
2018-09-05T04:42:16.306Z,94.6611
2018-09-05T04:43:21.458Z,94.9121
2018-09-05T04:44:26.040Z,95.4168
2018-09-05T04:45:31.589Z,93.9054
2018-09-05T04:46:36.703Z,94.1564
2018-09-05T04:47:42.145Z,94.1564
2018-09-05T04:48:47.652Z,93.6517
2018-09-05T04:49:53.083Z,94.6611
2018-09-05T04:50:58.011Z,93.9054
2018-09-05T04:52:02.913Z,94.6611
2018-09-05T04:53:08.344Z,94.4074
2018-09-05T04:54:13.248Z,93.6517
2018-09-05T04:55:19.032Z,93.9054
2018-09-05T04:56:24.205Z,94.1564
2018-09-05T04:57:29.652Z,94.4074
2018-09-05T04:58:35.439Z,94.6611
2018-09-05T04:59:40.588Z,94.6611
2018-09-05T05:00:46.159Z,94.1564
2018-09-05T05:01:51.027Z,93.6517
2018-09-05T05:02:56.484Z,94.1564
2018-09-05T05:04:02.147Z,93.4853
2018-09-05T05:05:07.657Z,93.7363
2018-09-05T05:06:12.809Z,93.4853
2018-09-05T05:07:18.204Z,93.2316
2018-09-05T05:08:23.362Z,94.4074
2018-09-05T05:09:29.734Z,93.9054
2018-09-05T05:10:34.594Z,94.1564
2018-09-05T05:11:39.480Z,93.7363
2018-09-05T05:12:45.317Z,93.7363
2018-09-05T05:13:50.959Z,93.9054
2018-09-05T05:14:56.382Z,93.9054
2018-09-05T05:16:02.166Z,94.6611
2018-09-05T05:17:07.034Z,93.4853
2018-09-05T05:18:12.570Z,93.4853
2018-09-05T05:19:18.365Z,93.7363
2018-09-05T05:20:23.244Z,93.2316
2018-09-05T05:21:29.322Z,93.9873
2018-09-05T05:22:34.492Z,93.7363
2018-09-05T05:23:40.528Z,93.7363
2018-09-05T05:24:46.366Z,93.4853
2018-09-05T05:25:51.860Z,93.2316
2018-09-05T05:26:57.287Z,93.9873
2018-09-05T05:28:02.516Z,93.4853
2018-09-05T05:29:07.382Z,94.4074
2018-09-05T05:30:12.058Z,93.9873
2018-09-05T05:31:17.767Z,93.9873
2018-09-05T05:32:22.830Z,93.7363
2018-09-05T05:33:29.381Z,93.2316
2018-09-05T05:34:34.823Z,94.1564
2018-09-05T05:35:39.851Z,93.4853
2018-09-05T05:36:45.170Z,93.4853
2018-09-05T05:37:50.026Z,93.9873
2018-09-05T05:38:55.565Z,93.4853
2018-09-05T05:40:01.385Z,94.1564
2018-09-05T05:41:06.255Z,93.7363
2018-09-05T05:42:11.426Z,93.9873
2018-09-05T05:43:16.619Z,94.1564
2018-09-05T05:44:22.047Z,93.4853
2018-09-05T05:45:41.532Z,94.4074
2018-09-05T05:46:47.077Z,93.7363
2018-09-05T05:47:52.176Z,94.241
2018-09-05T05:48:57.921Z,93.9873
2018-09-05T05:50:02.547Z,94.241
2018-09-05T05:51:07.457Z,93.2316
2018-09-05T05:52:12.297Z,93.7363
2018-09-05T05:53:17.450Z,93.7363
2018-09-05T05:54:22.380Z,93.7363
2018-09-05T05:55:27.779Z,93.7363
2018-09-05T05:56:32.968Z,93.7363
2018-09-05T05:57:38.660Z,92.7296
2018-09-05T05:58:43.829Z,94.241
2018-09-05T05:59:48.729Z,93.9873
2018-09-05T06:00:54.265Z,93.7363
2018-09-05T06:01:59.972Z,93.2316
2018-09-05T06:03:05.403Z,92.2249
2018-09-05T06:04:09.687Z,92.9806
2018-09-05T06:05:14.839Z,92.2249
2018-09-05T06:06:20.769Z,92.0558
2018-09-05T06:07:27.054Z,92.9806
2018-09-05T06:08:31.931Z,92.0558
2018-09-05T06:09:37.362Z,92.7296
2018-09-05T06:10:42.931Z,92.7296
2018-09-05T06:11:47.830Z,92.4759
2018-09-05T06:12:53.504Z,91.8047
2018-09-05T06:13:59.053Z,92.2249
2018-09-05T06:15:03.631Z,91.9738
2018-09-05T06:16:08.592Z,91.9738
2018-09-05T06:17:13.747Z,91.5537
2018-09-05T06:18:19.196Z,91.5537
2018-09-05T06:19:24.895Z,91.8047
2018-09-05T06:20:30.339Z,91.3001
2018-09-05T06:21:35.453Z,91.5537
2018-09-05T06:22:40.914Z,91.5537
2018-09-05T06:23:46.125Z,92.4759
2018-09-05T06:24:51.968Z,92.2249
2018-09-05T06:25:56.832Z,91.9738
2018-09-05T06:27:02.294Z,91.8047
2018-09-05T06:28:07.412Z,91.5537
2018-09-05T06:29:12.840Z,91.049
2018-09-05T06:30:17.946Z,92.2249
2018-09-05T06:31:23.685Z,91.3001
2018-09-05T06:32:29.224Z,91.5537
2018-09-05T06:33:34.554Z,91.5537
2018-09-05T06:34:39.985Z,91.9738
2018-09-05T06:35:45.200Z,91.049
2018-09-05T06:36:50.942Z,91.049
2018-09-05T06:37:56.377Z,91.5537
2018-09-05T06:39:01.461Z,91.8047
2018-09-05T06:40:06.537Z,90.798
2018-09-05T06:41:11.409Z,91.3001
2018-09-05T06:42:16.548Z,91.8047
2018-09-05T06:43:22.042Z,91.3001
2018-09-05T06:44:27.204Z,91.3001
2018-09-05T06:45:32.787Z,91.5537
2018-09-05T06:46:38.525Z,91.5537
2018-09-05T06:47:43.685Z,91.8047
2018-09-05T06:48:49.361Z,91.049
2018-09-05T06:49:54.645Z,91.3001
2018-09-05T06:51:00.074Z,91.9738
2018-09-05T06:52:05.878Z,91.8047
2018-09-05T06:53:10.498Z,92.2249
2018-09-05T06:54:15.655Z,91.049
2018-09-05T06:55:21.201Z,91.8047
2018-09-05T06:56:26.409Z,91.3001
2018-09-05T06:57:31.533Z,91.3001
2018-09-05T06:58:36.983Z,90.5443
2018-09-05T06:59:43.609Z,90.798
2018-09-05T07:00:49.374Z,91.049
2018-09-05T07:01:54.526Z,91.049
2018-09-05T07:02:59.781Z,91.5537
2018-09-05T07:04:05.749Z,90.5443
2018-09-05T07:05:10.897Z,91.5537
2018-09-05T07:06:15.799Z,90.798
2018-09-05T07:07:20.726Z,91.5537
2018-09-05T07:08:25.594Z,91.3001
2018-09-05T07:09:31.616Z,91.3001
2018-09-05T07:10:36.815Z,91.8047
2018-09-05T07:11:42.246Z,92.2249
2018-09-05T07:12:47.378Z,91.049
2018-09-05T07:13:52.267Z,90.2933
2018-09-05T07:14:57.712Z,91.8047
2018-09-05T07:16:02.758Z,90.798
2018-09-05T07:17:07.913Z,91.5537
2018-09-05T07:18:12.828Z,91.8047
2018-09-05T07:19:18.463Z,91.3001
2018-09-05T07:20:23.945Z,90.2933
2018-09-05T07:21:43.818Z,90.798
2018-09-05T07:22:48.504Z,91.8047
2018-09-05T07:23:53.417Z,91.049
2018-09-05T07:24:59.038Z,90.798
2018-09-05T07:26:04.433Z,91.3001
2018-09-05T07:27:09.584Z,91.3001
2018-09-05T07:28:15.727Z,91.049
2018-09-05T07:29:20.665Z,90.798
2018-09-05T07:30:26.363Z,91.3001
2018-09-05T07:31:32.104Z,91.8047
2018-09-05T07:32:37.402Z,91.8047
2018-09-05T07:33:42.860Z,91.5537
2018-09-05T07:34:47.698Z,91.5537
2018-09-05T07:35:52.849Z,90.2933
2018-09-05T07:36:58.437Z,91.3001
2018-09-05T07:38:03.164Z,91.5537
2018-09-05T07:39:08.427Z,91.5537
2018-09-05T07:40:13.541Z,91.049
2018-09-05T07:41:19.228Z,91.049
2018-09-05T07:42:24.458Z,91.3001
2018-09-05T07:43:45.177Z,90.798
2018-09-05T07:44:50.837Z,90.2933
2018-09-05T07:45:55.760Z,91.3001
2018-09-05T07:47:00.832Z,90.5443
2018-09-05T07:48:06.338Z,90.5443
2018-09-05T07:49:11.452Z,90.798
2018-09-05T07:50:16.906Z,90.5443
2018-09-05T07:51:22.405Z,90.0423
2018-09-05T07:52:28.921Z,90.2933
2018-09-05T07:53:34.101Z,91.049
2018-09-05T07:54:39.488Z,91.049
2018-09-05T07:55:44.664Z,91.3001
2018-09-05T07:56:50.110Z,90.798
2018-09-05T07:57:55.243Z,90.798
2018-09-05T07:59:00.237Z,90.0423
2018-09-05T08:00:05.124Z,90.2933
2018-09-05T08:01:09.441Z,91.049
2018-09-05T08:02:14.583Z,90.2933
2018-09-05T08:03:20.096Z,91.3001
2018-09-05T08:04:25.916Z,91.049
2018-09-05T08:05:30.814Z,91.049
2018-09-05T08:06:36.230Z,90.798
2018-09-05T08:07:41.433Z,90.798
2018-09-05T08:08:46.861Z,91.3001
2018-09-05T08:09:51.467Z,91.049
2018-09-05T08:10:57.029Z,91.049
2018-09-05T08:12:01.898Z,90.798
2018-09-05T08:13:07.492Z,91.049
2018-09-05T08:14:12.697Z,90.798
2018-09-05T08:15:17.842Z,91.3001
2018-09-05T08:16:23.065Z,90.798
2018-09-05T08:17:28.492Z,91.049
2018-09-05T08:18:33.241Z,91.3001
2018-09-05T08:19:38.691Z,91.5537
2018-09-05T08:20:44.121Z,90.798
2018-09-05T08:21:49.525Z,90.5443
2018-09-05T08:22:54.393Z,91.049
2018-09-05T08:23:59.421Z,90.0423
2018-09-05T08:25:04.737Z,91.5537
2018-09-05T08:26:09.880Z,91.049
2018-09-05T08:27:15.066Z,91.9738
2018-09-05T08:28:20.475Z,91.5537
2018-09-05T08:29:25.359Z,91.3001
2018-09-05T08:30:31.130Z,91.5537
2018-09-05T08:31:36.332Z,91.5537
2018-09-05T08:32:40.938Z,91.049
2018-09-05T08:33:46.213Z,91.9738
2018-09-05T08:34:51.862Z,91.5537
2018-09-05T08:36:00.444Z,91.3001
2018-09-05T08:37:09.180Z,91.9738
2018-09-05T08:38:15.184Z,92.2249
2018-09-05T08:39:20.287Z,91.5537
2018-09-05T08:40:25.966Z,91.8047
2018-09-05T08:41:31.606Z,91.5537
2018-09-05T08:42:37.248Z,91.9738
2018-09-05T08:43:43.252Z,92.4759
2018-09-05T08:44:50.817Z,92.2249
2018-09-05T08:45:57.240Z,91.3001
2018-09-05T08:47:02.052Z,91.9738
2018-09-05T08:48:07.024Z,92.2249
2018-09-05T08:49:12.689Z,91.8047
2018-09-05T08:50:17.552Z,91.8047
2018-09-05T08:51:23.046Z,92.2249
2018-09-05T08:52:28.848Z,92.9806
2018-09-05T08:53:33.710Z,92.2249
2018-09-05T08:54:39.213Z,92.4759
2018-09-05T08:55:44.817Z,92.9806
2018-09-05T08:56:49.675Z,92.2249
2018-09-05T08:57:55.219Z,92.4759
2018-09-05T08:58:59.543Z,92.2249
2018-09-05T09:00:04.557Z,92.2249
2018-09-05T09:01:10.389Z,92.7296
2018-09-05T09:02:15.820Z,91.9738
2018-09-05T09:03:21.050Z,92.4759
2018-09-05T09:04:26.414Z,92.7296
2018-09-05T09:05:31.231Z,92.7296
2018-09-05T09:06:36.572Z,93.7363
2018-09-05T09:07:41.445Z,92.9806
2018-09-05T09:08:46.978Z,92.9806
2018-09-05T09:09:52.691Z,92.7296
2018-09-05T09:10:57.813Z,92.9806
2018-09-05T09:12:02.399Z,93.2316
2018-09-05T09:13:07.228Z,93.4853
2018-09-05T09:14:12.656Z,92.9806
2018-09-05T09:15:18.083Z,93.7363
2018-09-05T09:16:23.585Z,93.4853
2018-09-05T09:17:29.055Z,93.4853
2018-09-05T09:18:33.798Z,93.9873
2018-09-05T09:19:39.253Z,93.2316
2018-09-05T09:20:44.404Z,93.2316
2018-09-05T09:21:49.840Z,93.4853
2018-09-05T09:22:55.059Z,93.9873
2018-09-05T09:24:00.719Z,93.7363
2018-09-05T09:25:05.672Z,94.241
2018-09-05T09:26:11.076Z,94.4074
2018-09-05T09:27:16.217Z,93.7363
2018-09-05T09:28:22.050Z,93.7363
2018-09-05T09:29:27.556Z,94.241
2018-09-05T09:30:32.946Z,94.4074
2018-09-05T09:31:38.411Z,94.4074
2018-09-05T09:32:44.178Z,94.4074
2018-09-05T09:33:49.673Z,93.9873
2018-09-05T09:34:54.816Z,94.9121
2018-09-05T09:36:00.241Z,95.1658
2018-09-05T09:37:06.067Z,94.9121
2018-09-05T09:38:10.929Z,94.9121
2018-09-05T09:39:16.160Z,94.4074
2018-09-05T09:40:21.100Z,94.6611
2018-09-05T09:41:26.561Z,94.6611
2018-09-05T09:42:31.399Z,94.6611
2018-09-05T09:43:36.551Z,94.6611
2018-09-05T09:44:42.020Z,95.6678
2018-09-05T09:45:47.304Z,94.6611
2018-09-05T09:46:52.739Z,94.6611
2018-09-05T09:47:57.934Z,94.6611
2018-09-05T09:49:03.176Z,94.6611
2018-09-05T09:50:08.620Z,95.4168
2018-09-05T09:51:13.479Z,95.4168
2018-09-05T09:52:18.617Z,95.1658
2018-09-05T09:53:23.770Z,95.4168
2018-09-05T09:54:29.588Z,94.9121
2018-09-05T09:55:34.165Z,95.4168
2018-09-05T09:56:40.059Z,94.6611
2018-09-05T09:57:45.630Z,94.9121
2018-09-05T09:58:51.160Z,94.6611
2018-09-05T09:59:56.072Z,95.6678
2018-09-05T10:01:01.241Z,94.9121
2018-09-05T10:02:06.843Z,95.1658
2018-09-05T10:03:12.213Z,95.9215
2018-09-05T10:04:18.333Z,95.6678
2018-09-05T10:05:23.741Z,95.6678
2018-09-05T10:06:29.815Z,95.6678
2018-09-05T10:07:34.682Z,95.9215
2018-09-05T10:08:39.559Z,96.1725
2018-09-05T10:09:44.948Z,95.6678
2018-09-05T10:10:50.562Z,96.5926
2018-09-05T10:11:55.461Z,96.4262
2018-09-05T10:13:01.192Z,96.1725
2018-09-05T10:14:06.066Z,96.8463
2018-09-05T10:15:11.218Z,96.4262
2018-09-05T10:16:17.031Z,96.4262
2018-09-05T10:17:22.461Z,96.4262
2018-09-05T10:18:42.523Z,96.4262
2018-09-05T10:19:48.273Z,95.9215
2018-09-05T10:20:53.490Z,96.4262
2018-09-05T10:21:58.477Z,96.4262
2018-09-05T10:23:03.369Z,96.5926
2018-09-05T10:24:08.352Z,96.4262
2018-09-05T10:25:13.769Z,95.4168
2018-09-05T10:26:18.940Z,96.4262
2018-09-05T10:27:24.093Z,97.602
2018-09-05T10:28:43.983Z,98.3577
2018-09-05T10:29:48.601Z,96.8463
2018-09-05T10:30:53.830Z,98.104
2018-09-05T10:31:58.901Z,97.3483
2018-09-05T10:33:03.236Z,96.5926
2018-09-05T10:34:07.798Z,97.0973
2018-09-05T10:35:12.672Z,96.5926
2018-09-05T10:36:17.816Z,97.3483
2018-09-05T10:37:23.246Z,97.602
2018-09-05T10:38:28.682Z,97.853
2018-09-05T10:39:34.326Z,97.602
2018-09-05T10:40:39.480Z,97.853
2018-09-05T10:41:44.942Z,97.602
2018-09-05T10:42:50.488Z,98.104
2018-09-05T10:43:55.917Z,97.3483
2018-09-05T10:45:01.147Z,97.0973
2018-09-05T10:46:06.267Z,97.853
2018-09-05T10:47:11.411Z,98.5242
2018-09-05T10:48:16.280Z,97.3483
2018-09-05T10:49:21.214Z,97.602
2018-09-05T10:50:26.694Z,97.602
2018-09-05T10:51:32.769Z,96.5926
2018-09-05T10:52:37.924Z,97.853
2018-09-05T10:53:43.075Z,98.104
2018-09-05T10:54:48.903Z,98.104
2018-09-05T10:55:54.056Z,98.3577
2018-09-05T10:56:59.506Z,98.104
2018-09-05T10:58:04.920Z,98.5242
2018-09-05T10:59:10.516Z,98.6933
2018-09-05T11:00:15.393Z,98.5242
2018-09-05T11:01:20.908Z,97.853
2018-09-05T11:02:26.094Z,98.5242
2018-09-05T11:03:31.621Z,97.3483
2018-09-05T11:04:36.502Z,98.104
2018-09-05T11:05:41.653Z,97.853
2018-09-05T11:06:47.354Z,98.9443
2018-09-05T11:07:53.096Z,97.853
2018-09-05T11:08:58.261Z,98.104
2018-09-05T11:10:03.210Z,98.6933
2018-09-05T11:11:08.133Z,98.104
2018-09-05T11:12:13.560Z,98.6933
2018-09-05T11:13:19.249Z,98.6933
2018-09-05T11:14:24.401Z,98.6933
2018-09-05T11:15:30.490Z,98.3577
2018-09-05T11:16:35.844Z,99.7026
2018-09-05T11:17:41.023Z,98.5242
2018-09-05T11:18:46.138Z,98.9443
2018-09-05T11:19:51.605Z,99.449
2018-09-05T11:20:57.083Z,98.5242
2018-09-05T11:22:02.238Z,98.104
2018-09-05T11:23:07.720Z,99.449
2018-09-05T11:24:12.937Z,98.2731
2018-09-05T11:25:18.435Z,99.449
2018-09-05T11:26:23.860Z,99.1979
2018-09-05T11:27:44.259Z,99.1979
2018-09-05T11:28:49.471Z,99.1979
2018-09-05T11:29:54.059Z,99.1979
2018-09-05T11:30:59.047Z,99.449
2018-09-05T11:32:04.248Z,99.7026
2018-09-05T11:33:09.410Z,99.449
2018-09-05T11:34:14.256Z,100.2073
2018-09-05T11:35:19.694Z,100.4583
2018-09-05T11:36:25.152Z,99.449
2018-09-05T11:37:30.469Z,99.449
2018-09-05T11:38:35.695Z,100.4583
2018-09-05T11:39:41.393Z,100.4583
2018-09-05T11:40:46.588Z,99.9537
2018-09-05T11:41:51.507Z,100.2073
2018-09-05T11:42:56.640Z,100.6274
2018-09-05T11:44:01.800Z,100.2073
2018-09-05T11:45:06.707Z,100.3738
2018-09-05T11:46:11.596Z,100.3738
2018-09-05T11:47:16.737Z,100.6274
2018-09-05T11:48:21.679Z,101.3831
2018-09-05T11:49:27.361Z,100.8785
2018-09-05T11:50:31.937Z,100.8785
2018-09-05T11:51:37.066Z,100.8785
2018-09-05T11:52:42.258Z,100.3738
2018-09-05T11:53:47.717Z,101.1295
2018-09-05T11:54:52.838Z,101.1295
2018-09-05T11:55:57.993Z,102.1388
2018-09-05T11:57:03.420Z,100.3738
2018-09-05T11:58:08.978Z,100.8785
2018-09-05T11:59:14.196Z,100.8785
2018-09-05T12:00:19.382Z,101.8878
2018-09-05T12:01:24.882Z,101.6342
2018-09-05T12:02:30.105Z,101.8878
2018-09-05T12:03:35.795Z,101.1295
2018-09-05T12:04:40.668Z,101.8878
2018-09-05T12:05:46.126Z,101.6342
2018-09-05T12:06:51.904Z,101.3831
2018-09-05T12:07:57.289Z,101.3831
2018-09-05T12:09:02.266Z,101.6342
2018-09-05T12:10:07.484Z,102.1388
2018-09-05T12:11:12.960Z,102.1388
2018-09-05T12:12:18.379Z,102.1388
2018-09-05T12:13:24.041Z,102.3925
2018-09-05T12:14:29.483Z,101.1295
2018-09-05T12:15:34.442Z,101.3831
2018-09-05T12:16:39.610Z,101.3831
2018-09-05T12:17:44.233Z,101.1295
2018-09-05T12:18:49.708Z,102.559
2018-09-05T12:19:54.562Z,102.1388
2018-09-05T12:20:59.447Z,101.6342
2018-09-05T12:22:04.658Z,102.3925
2018-09-05T12:23:10.143Z,102.559
2018-09-05T12:24:15.095Z,102.1388
2018-09-05T12:25:20.772Z,102.559
2018-09-05T12:26:25.648Z,102.559
2018-09-05T12:27:31.349Z,102.1388
2018-09-05T12:28:36.250Z,102.3925
2018-09-05T12:29:41.410Z,102.8126
2018-09-05T12:30:47.303Z,102.8126
2018-09-05T12:31:52.453Z,103.0637
2018-09-05T12:32:57.704Z,102.8126
2018-09-05T12:34:02.790Z,103.0637
2018-09-05T12:35:07.940Z,102.1388
2018-09-05T12:36:13.087Z,102.559
2018-09-05T12:37:18.786Z,103.3173
2018-09-05T12:38:24.994Z,103.5683
2018-09-05T12:39:31.157Z,103.3173
2018-09-05T12:40:36.073Z,104.5777
2018-09-05T12:41:41.230Z,103.0637
2018-09-05T12:42:47.066Z,103.3173
2018-09-05T12:43:52.548Z,103.0637
2018-09-05T12:44:56.274Z,103.0637
2018-09-05T12:46:01.767Z,103.822
2018-09-05T12:47:06.348Z,103.822
2018-09-05T12:48:11.787Z,103.0637
2018-09-05T12:49:17.406Z,103.0637
2018-09-05T12:50:22.560Z,103.5683
2018-09-05T12:51:28.331Z,103.5683
2018-09-05T12:52:33.775Z,103.3173
2018-09-05T12:53:38.929Z,103.3173
2018-09-05T12:54:44.049Z,103.5683
2018-09-05T12:55:49.287Z,104.5777
2018-09-05T12:56:54.150Z,103.5683
2018-09-05T12:57:59.869Z,104.5777
2018-09-05T12:59:05.114Z,105.1669
2018-09-05T13:00:10.480Z,104.5777
2018-09-05T13:01:15.897Z,104.9978
2018-09-05T13:02:20.898Z,104.9978
2018-09-05T13:03:25.759Z,104.9978
2018-09-05T13:04:31.538Z,105.418
2018-09-05T13:05:37.118Z,104.9978
2018-09-05T13:06:42.760Z,105.9226
2018-09-05T13:07:48.259Z,105.418
2018-09-05T13:08:53.478Z,105.9226
2018-09-05T13:09:58.871Z,105.418
2018-09-05T13:11:03.752Z,104.324
2018-09-05T13:12:09.311Z,105.1669